Terminal Aerodrome Forecast
Issued by NWS

Home | Current Version | Previous Version | Graphics & Text | Print | Product List | Glossary On
Versions: 1 2 3 4 5 6 7 8 9 10 11 12 13 14 15
700
FTUS42 KMHX 180524
TAFPGV
TAF
KPGV 180524Z 1806/1906 23010G14KT P6SM BKN150
     FM180900 26011KT P6SM VCSH BKN040
     FM181400 29011KT 6SM -SHRA BKN030
     FM181700 31007KT P6SM FEW250
      AMD LTD TO CLD VIS AND WIND=

USA.gov is the U.S. government's official web portal to all federal, state and local government web resources and services.